Terminal Aerodrome Forecast
Issued by NWS

Home | Current Version | Previous Version | Text Only | Print | Product List | Glossary On
Versions: 1 2 3 4 5 6 7 8 9 10 11 12 13 14 15 16 17
000
FTUS45 KSLC 271120
TAFLGU
TAF
KLGU 271120Z 2712/2812 VRB05KT P6SM VCSH SCT040 OVC060
     FM271400 34005KT P6SM VCSH BKN040 OVC070
     FM272200 33008KT P6SM VCSH SCT015 OVC040=

USA.gov is the U.S. government's official web portal to all federal, state and local government web resources and services.